sensor_id;sensor_type;location;lat;lon;timestamp;pressure;altitude;pressure_sealevel;temperature;humidity
34586;BME280;20816;50.950;11.108;2023-11-21T00:01:14;97795.00;;;7.56;100.00
34586;BME280;20816;50.950;11.108;2023-11-21T00:03:41;97790.63;;;7.57;100.00
34586;BME280;20816;50.950;11.108;2023-11-21T00:06:08;97784.53;;;7.56;100.00
34586;BME280;20816;50.950;11.108;2023-11-21T00:08:36;97789.75;;;7.58;100.00
34586;BME280;20816;50.950;11.108;2023-11-21T00:11:03;97791.44;;;7.61;100.00
34586;BME280;20816;50.950;11.108;2023-11-21T00:13:32;97793.13;;;7.62;100.00
34586;BME280;20816;50.950;11.108;2023-11-21T00:15:59;97792.06;;;7.70;100.00
34586;BME280;20816;50.950;11.108;2023-11-21T00:18:26;97792.94;;;7.71;100.00
34586;BME280;20816;50.950;11.108;2023-11-21T00:20:53;97794.72;;;7.69;100.00
34586;BME280;20816;50.950;11.108;2023-11-21T00:23:19;97794.81;;;7.66;100.00
34586;BME280;20816;50.950;11.108;2023-11-21T00:25:46;97790.44;;;7.65;100.00
34586;BME280;20816;50.950;11.108;2023-11-21T00:28:13;97794.84;;;7.63;100.00
34586;BME280;20816;50.950;11.108;2023-11-21T00:30:40;97793.91;;;7.67;100.00
34586;BME280;20816;50.950;11.108;2023-11-21T00:33:07;97798.16;;;7.71;100.00
34586;BME280;20816;50.950;11.108;2023-11-21T00:35:34;97793.00;;;7.68;100.00
34586;BME280;20816;50.950;11.108;2023-11-21T00:38:00;97794.72;;;7.69;100.00
34586;BME280;20816;50.950;11.108;2023-11-21T00:40:27;97791.28;;;7.67;100.00
34586;BME280;20816;50.950;11.108;2023-11-21T00:42:54;97795.53;;;7.71;100.00
34586;BME280;20816;50.950;11.108;2023-11-21T00:45:22;97800.78;;;7.71;100.00
34586;BME280;20816;50.950;11.108;2023-11-21T00:47:49;97810.41;;;7.69;100.00
34586;BME280;20816;50.950;11.108;2023-11-21T00:50:16;97803.47;;;7.68;100.00
34586;BME280;20816;50.950;11.108;2023-11-21T00:52:43;97803.53;;;7.65;100.00
34586;BME280;20816;50.950;11.108;2023-11-21T00:55:09;97807.00;;;7.65;100.00
34586;BME280;20816;50.950;11.108;2023-11-21T00:57:36;97802.66;;;7.66;100.00
34586;BME280;20816;50.950;11.108;2023-11-21T01:00:04;97808.75;;;7.65;100.00
34586;BME280;20816;50.950;11.108;2023-11-21T01:02:40;97807.00;;;7.67;100.00
34586;BME280;20816;50.950;11.108;2023-11-21T01:05:07;97813.97;;;7.66;100.00
34586;BME280;20816;50.950;11.108;2023-11-21T01:07:34;97815.78;;;7.63;100.00
34586;BME280;20816;50.950;11.108;2023-11-21T01:10:01;97811.41;;;7.63;100.00
34586;BME280;20816;50.950;11.108;2023-11-21T01:12:28;97808.75;;;7.65;100.00
34586;BME280;20816;50.950;11.108;2023-11-21T01:14:54;97812.34;;;7.61;100.00
34586;BME280;20816;50.950;11.108;2023-11-21T01:17:21;97818.50;;;7.58;100.00
34586;BME280;20816;50.950;11.108;2023-11-21T01:19:49;97824.59;;;7.58;100.00
34586;BME280;20816;50.950;11.108;2023-11-21T01:22:15;97824.59;;;7.58;100.00
34586;BME280;20816;50.950;11.108;2023-11-21T01:24:43;97822.81;;;7.61;100.00
34586;BME280;20816;50.950;11.108;2023-11-21T01:27:09;97831.47;;;7.63;100.00
34586;BME280;20816;50.950;11.108;2023-11-21T01:29:36;97829.78;;;7.60;100.00
34586;BME280;20816;50.950;11.108;2023-11-21T01:32:03;97832.47;;;7.57;100.00
34586;BME280;20816;50.950;11.108;2023-11-21T01:34:30;97836.81;;;7.56;100.00
34586;BME280;20816;50.950;11.108;2023-11-21T01:36:57;97840.28;;;7.58;100.00
34586;BME280;20816;50.950;11.108;2023-11-21T01:39:25;97838.56;;;7.57;100.00
34586;BME280;20816;50.950;11.108;2023-11-21T01:41:52;97837.69;;;7.57;100.00
34586;BME280;20816;50.950;11.108;2023-11-21T01:44:19;97838.59;;;7.56;100.00
34586;BME280;20816;50.950;11.108;2023-11-21T01:46:46;97838.56;;;7.57;100.00
34586;BME280;20816;50.950;11.108;2023-11-21T01:49:14;97840.34;;;7.55;100.00
34586;BME280;20816;50.950;11.108;2023-11-21T01:51:43;97833.41;;;7.54;100.00
34586;BME280;20816;50.950;11.108;2023-11-21T01:54:11;97838.63;;;7.54;100.00
34586;BME280;20816;50.950;11.108;2023-11-21T01:56:46;97841.25;;;7.54;100.00
34586;BME280;20816;50.950;11.108;2023-11-21T01:59:22;97844.66;;;7.58;100.00
34586;BME280;20816;50.950;11.108;2023-11-21T02:01:50;97847.44;;;7.50;100.00
34586;BME280;20816;50.950;11.108;2023-11-21T02:04:18;97844.84;;;7.49;100.00
34586;BME280;20816;50.950;11.108;2023-11-21T02:06:45;97839.69;;;7.46;100.00
34586;BME280;20816;50.950;11.108;2023-11-21T02:09:11;97844.06;;;7.45;100.00
34586;BME280;20816;50.950;11.108;2023-11-21T02:11:41;97844.91;;;7.46;100.00
34586;BME280;20816;50.950;11.108;2023-11-21T02:14:09;97850.16;;;7.46;100.00
34586;BME280;20816;50.950;11.108;2023-11-21T02:16:36;97843.97;;;7.48;100.00
34586;BME280;20816;50.950;11.108;2023-11-21T02:19:07;97847.50;;;7.47;100.00
34586;BME280;20816;50.950;11.108;2023-11-21T02:21:35;97848.47;;;7.43;100.00
34586;BME280;20816;50.950;11.108;2023-11-21T02:24:07;97847.59;;;7.43;100.00
34586;BME280;20816;50.950;11.108;2023-11-21T02:26:34;97850.22;;;7.43;100.00
34586;BME280;20816;50.950;11.108;2023-11-21T02:29:01;97847.66;;;7.41;100.00
34586;BME280;20816;50.950;11.108;2023-11-21T02:31:31;97850.28;;;7.40;100.00
34586;BME280;20816;50.950;11.108;2023-11-21T02:33:59;97853.78;;;7.39;100.00
34586;BME280;20816;50.950;11.108;2023-11-21T02:36:26;97843.28;;;7.42;100.00
34586;BME280;20816;50.950;11.108;2023-11-21T02:38:53;97843.31;;;7.39;100.00
34586;BME280;20816;50.950;11.108;2023-11-21T02:41:19;97858.22;;;7.35;100.00
34586;BME280;20816;50.950;11.108;2023-11-21T02:43:46;97859.00;;;7.39;100.00
34586;BME280;20816;50.950;11.108;2023-11-21T02:46:12;97849.56;;;7.33;100.00
34586;BME280;20816;50.950;11.108;2023-11-21T02:48:39;97848.81;;;7.26;100.00
34586;BME280;20816;50.950;11.108;2023-11-21T02:51:06;97854.94;;;7.25;100.00
34586;BME280;20816;50.950;11.108;2023-11-21T02:53:32;97856.84;;;7.16;100.00
34586;BME280;20816;50.950;11.108;2023-11-21T02:55:59;97856.03;;;7.14;100.00
34586;BME280;20816;50.950;11.108;2023-11-21T02:58:26;97853.44;;;7.14;100.00
34586;BME280;20816;50.950;11.108;2023-11-21T03:00:53;97856.13;;;7.11;100.00
34586;BME280;20816;50.950;11.108;2023-11-21T03:03:20;97849.22;;;7.07;100.00
34586;BME280;20816;50.950;11.108;2023-11-21T03:05:47;97852.69;;;7.07;100.00
34586;BME280;20816;50.950;11.108;2023-11-21T03:08:14;97855.63;;;6.90;100.00
34586;BME280;20816;50.950;11.108;2023-11-21T03:10:40;97857.59;;;6.79;100.00
34586;BME280;20816;50.950;11.108;2023-11-21T03:13:07;97860.34;;;6.71;100.00
34586;BME280;20816;50.950;11.108;2023-11-21T03:15:34;97857.03;;;6.62;100.00
34586;BME280;20816;50.950;11.108;2023-11-21T03:18:02;97869.34;;;6.55;100.00
34586;BME280;20816;50.950;11.108;2023-11-21T03:20:29;97872.00;;;6.51;100.00
34586;BME280;20816;50.950;11.108;2023-11-21T03:22:56;97863.53;;;6.39;100.00
34586;BME280;20816;50.950;11.108;2023-11-21T03:25:23;97868.88;;;6.32;100.00
34586;BME280;20816;50.950;11.108;2023-11-21T03:27:50;97875.94;;;6.25;100.00
34586;BME280;20816;50.950;11.108;2023-11-21T03:30:17;97877.72;;;6.23;100.00
34586;BME280;20816;50.950;11.108;2023-11-21T03:32:44;97873.44;;;6.17;100.00
34586;BME280;20816;50.950;11.108;2023-11-21T03:35:11;97877.91;;;6.11;100.00
34586;BME280;20816;50.950;11.108;2023-11-21T03:37:38;97878.03;;;6.02;100.00
34586;BME280;20816;50.950;11.108;2023-11-21T03:40:08;97885.13;;;5.94;100.00
34586;BME280;20816;50.950;11.108;2023-11-21T03:42:35;97881.78;;;5.82;100.00
34586;BME280;20816;50.950;11.108;2023-11-21T03:45:02;97881.84;;;5.79;100.00
34586;BME280;20816;50.950;11.108;2023-11-21T03:47:30;97887.81;;;5.84;100.00
34586;BME280;20816;50.950;11.108;2023-11-21T03:49:57;97886.16;;;5.80;100.00
34586;BME280;20816;50.950;11.108;2023-11-21T03:52:24;97887.88;;;5.81;100.00
34586;BME280;20816;50.950;11.108;2023-11-21T03:54:51;97887.16;;;5.72;100.00
34586;BME280;20816;50.950;11.108;2023-11-21T03:57:18;97890.75;;;5.63;100.00
34586;BME280;20816;50.950;11.108;2023-11-21T03:59:44;97891.69;;;5.57;100.00
34586;BME280;20816;50.950;11.108;2023-11-21T04:02:11;97902.25;;;5.48;100.00
34586;BME280;20816;50.950;11.108;2023-11-21T04:04:38;97893.69;;;5.37;100.00
34586;BME280;20816;50.950;11.108;2023-11-21T04:07:05;97902.41;;;5.34;100.00
34586;BME280;20816;50.950;11.108;2023-11-21T04:09:32;97895.50;;;5.29;100.00
34586;BME280;20816;50.950;11.108;2023-11-21T04:11:59;97910.31;;;5.27;100.00
34586;BME280;20816;50.950;11.108;2023-11-21T04:14:26;97903.34;;;5.27;100.00
34586;BME280;20816;50.950;11.108;2023-11-21T04:16:52;97905.06;;;5.28;100.00
34586;BME280;20816;50.950;11.108;2023-11-21T04:19:20;97899.91;;;5.25;100.00
34586;BME280;20816;50.950;11.108;2023-11-21T04:21:47;97908.66;;;5.21;100.00
34586;BME280;20816;50.950;11.108;2023-11-21T04:24:14;97912.22;;;5.13;100.00
34586;BME280;20816;50.950;11.108;2023-11-21T04:26:40;97917.47;;;5.08;100.00
34586;BME280;20816;50.950;11.108;2023-11-21T04:29:07;97914.09;;;5.00;100.00
34586;BME280;20816;50.950;11.108;2023-11-21T04:31:34;97924.63;;;4.88;100.00
34586;BME280;20816;50.950;11.108;2023-11-21T04:34:01;97924.63;;;4.91;100.00
34586;BME280;20816;50.950;11.108;2023-11-21T04:36:27;97919.44;;;4.86;100.00
34586;BME280;20816;50.950;11.108;2023-11-21T04:38:54;97926.47;;;4.76;100.00
34586;BME280;20816;50.950;11.108;2023-11-21T04:41:21;97923.06;;;4.71;100.00
34586;BME280;20816;50.950;11.108;2023-11-21T04:43:48;97923.97;;;4.67;100.00
34586;BME280;20816;50.950;11.108;2023-11-21T04:46:15;97919.59;;;4.69;100.00
34586;BME280;20816;50.950;11.108;2023-11-21T04:48:42;97921.41;;;4.64;100.00
34586;BME280;20816;50.950;11.108;2023-11-21T04:51:09;97936.16;;;4.65;100.00
34586;BME280;20816;50.950;11.108;2023-11-21T04:53:38;97938.75;;;4.65;100.00
34586;BME280;20816;50.950;11.108;2023-11-21T04:56:06;97940.44;;;4.69;100.00
34586;BME280;20816;50.950;11.108;2023-11-21T04:58:32;97937.00;;;4.63;100.00
34586;BME280;20816;50.950;11.108;2023-11-21T05:00:59;97944.81;;;4.66;100.00
34586;BME280;20816;50.950;11.108;2023-11-21T05:03:26;97936.19;;;4.59;100.00
34586;BME280;20816;50.950;11.108;2023-11-21T05:05:53;97943.19;;;4.53;100.00
34586;BME280;20816;50.950;11.108;2023-11-21T05:08:19;97945.84;;;4.48;100.00
34586;BME280;20816;50.950;11.108;2023-11-21T05:10:48;97944.94;;;4.47;100.00
34586;BME280;20816;50.950;11.108;2023-11-21T05:13:19;97941.50;;;4.45;100.00
34586;BME280;20816;50.950;11.108;2023-11-21T05:15:46;97950.22;;;4.41;100.00
34586;BME280;20816;50.950;11.108;2023-11-21T05:18:13;97954.53;;;4.44;100.00
34586;BME280;20816;50.950;11.108;2023-11-21T05:20:40;97954.53;;;4.44;100.00
34586;BME280;20816;50.950;11.108;2023-11-21T05:23:07;97947.56;;;4.46;100.00
34586;BME280;20816;50.950;11.108;2023-11-21T05:25:34;97954.53;;;4.44;100.00
34586;BME280;20816;50.950;11.108;2023-11-21T05:28:05;97951.09;;;4.39;100.00
34586;BME280;20816;50.950;11.108;2023-11-21T05:30:33;97963.28;;;4.35;100.00
34586;BME280;20816;50.950;11.108;2023-11-21T05:32:59;97959.81;;;4.35;100.00
34586;BME280;20816;50.950;11.108;2023-11-21T05:35:26;97961.56;;;4.33;100.00
34586;BME280;20816;50.950;11.108;2023-11-21T05:37:53;97957.25;;;4.27;100.00
34586;BME280;20816;50.950;11.108;2023-11-21T05:40:19;97958.16;;;4.25;100.00
34586;BME280;20816;50.950;11.108;2023-11-21T05:42:49;97957.28;;;4.24;100.00
34586;BME280;20816;50.950;11.108;2023-11-21T05:45:17;97947.72;;;4.23;100.00
34586;BME280;20816;50.950;11.108;2023-11-21T05:47:46;97953.81;;;4.22;100.00
34586;BME280;20816;50.950;11.108;2023-11-21T05:50:15;97960.00;;;4.04;100.00
34586;BME280;20816;50.950;11.108;2023-11-21T05:52:46;97964.38;;;3.96;100.00
34586;BME280;20816;50.950;11.108;2023-11-21T05:55:14;97963.56;;;3.91;100.00
34586;BME280;20816;50.950;11.108;2023-11-21T05:57:43;97964.38;;;3.96;100.00
34586;BME280;20816;50.950;11.108;2023-11-21T06:00:12;97958.31;;;4.02;100.00
34586;BME280;20816;50.950;11.108;2023-11-21T06:02:49;97969.66;;;3.85;100.00
34586;BME280;20816;50.950;11.108;2023-11-21T06:05:25;97979.22;;;3.79;100.00
34586;BME280;20816;50.950;11.108;2023-11-21T06:07:54;97991.38;;;3.71;100.00
34586;BME280;20816;50.950;11.108;2023-11-21T06:10:21;97987.00;;;3.85;100.00
34586;BME280;20816;50.950;11.108;2023-11-21T06:12:51;97995.66;;;3.82;100.00
34586;BME280;20816;50.950;11.108;2023-11-21T06:15:18;98009.56;;;3.74;100.00
34586;BME280;20816;50.950;11.108;2023-11-21T06:17:49;98015.66;;;3.63;100.00
34586;BME280;20816;50.950;11.108;2023-11-21T06:20:21;98022.63;;;3.55;100.00
34586;BME280;20816;50.950;11.108;2023-11-21T06:22:49;98018.31;;;3.48;100.00
34586;BME280;20816;50.950;11.108;2023-11-21T06:25:17;98033.03;;;3.49;100.00
34586;BME280;20816;50.950;11.108;2023-11-21T06:27:47;98036.50;;;3.45;100.00
34586;BME280;20816;50.950;11.108;2023-11-21T06:30:15;98035.63;;;3.42;100.00
34586;BME280;20816;50.950;11.108;2023-11-21T06:32:43;98038.22;;;3.42;100.00
34586;BME280;20816;50.950;11.108;2023-11-21T06:35:14;98043.47;;;3.37;100.00
34586;BME280;20816;50.950;11.108;2023-11-21T06:37:44;98043.47;;;3.34;100.00
34586;BME280;20816;50.950;11.108;2023-11-21T06:40:18;98047.75;;;3.41;100.00
34586;BME280;20816;50.950;11.108;2023-11-21T06:42:46;98042.56;;;3.41;100.00
34586;BME280;20816;50.950;11.108;2023-11-21T06:45:15;98043.47;;;3.43;100.00
34586;BME280;20816;50.950;11.108;2023-11-21T06:47:42;98039.09;;;3.51;100.00
34586;BME280;20816;50.950;11.108;2023-11-21T06:50:09;98038.19;;;3.57;100.00
34586;BME280;20816;50.950;11.108;2023-11-21T06:52:36;98044.25;;;3.63;100.00
34586;BME280;20816;50.950;11.108;2023-11-21T06:55:03;98047.66;;;3.73;100.00
34586;BME280;20816;50.950;11.108;2023-11-21T06:57:31;98038.06;;;3.89;100.00
34586;BME280;20816;50.950;11.108;2023-11-21T06:59:58;98049.28;;;3.99;100.00
34586;BME280;20816;50.950;11.108;2023-11-21T07:02:24;98057.97;;;4.02;100.00
34586;BME280;20816;50.950;11.108;2023-11-21T07:04:51;98060.53;;;4.08;100.00
34586;BME280;20816;50.950;11.108;2023-11-21T07:07:18;98050.09;;;4.17;100.00
34586;BME280;20816;50.950;11.108;2023-11-21T07:09:45;98053.53;;;4.24;100.00
34586;BME280;20816;50.950;11.108;2023-11-21T07:12:12;98058.69;;;4.29;100.00
34586;BME280;20816;50.950;11.108;2023-11-21T07:14:39;98059.56;;;4.29;100.00
34586;BME280;20816;50.950;11.108;2023-11-21T07:17:07;98060.34;;;4.42;100.00
34586;BME280;20816;50.950;11.108;2023-11-21T07:19:34;98060.31;;;4.45;100.00
34586;BME280;20816;50.950;11.108;2023-11-21T07:22:01;98064.66;;;4.49;100.00
34586;BME280;20816;50.950;11.108;2023-11-21T07:24:27;98064.59;;;4.54;100.00
34586;BME280;20816;50.950;11.108;2023-11-21T07:26:54;98070.59;;;4.66;100.00
34586;BME280;20816;50.950;11.108;2023-11-21T07:29:24;98075.75;;;4.75;100.00
34586;BME280;20816;50.950;11.108;2023-11-21T07:31:55;98077.41;;;4.84;100.00
34586;BME280;20816;50.950;11.108;2023-11-21T07:34:22;98079.06;;;4.93;100.00
34586;BME280;20816;50.950;11.108;2023-11-21T07:36:49;98082.50;;;5.01;100.00
34586;BME280;20816;50.950;11.108;2023-11-21T07:39:16;98086.75;;;5.10;100.00
34586;BME280;20816;50.950;11.108;2023-11-21T07:41:43;98090.97;;;5.24;100.00
34586;BME280;20816;50.950;11.108;2023-11-21T07:44:16;98091.78;;;5.32;100.00
34586;BME280;20816;50.950;11.108;2023-11-21T07:46:43;98094.28;;;5.42;100.00
34586;BME280;20816;50.950;11.108;2023-11-21T07:49:11;98107.25;;;5.49;100.00
34586;BME280;20816;50.950;11.108;2023-11-21T07:51:38;98107.19;;;5.57;100.00
34586;BME280;20816;50.950;11.108;2023-11-21T07:54:05;98107.09;;;5.65;100.00
34586;BME280;20816;50.950;11.108;2023-11-21T07:56:32;98118.34;;;5.68;100.00
34586;BME280;20816;50.950;11.108;2023-11-21T07:58:59;98101.81;;;5.72;100.00
34586;BME280;20816;50.950;11.108;2023-11-21T08:01:26;98112.19;;;5.78;100.00
34586;BME280;20816;50.950;11.108;2023-11-21T08:03:54;98114.72;;;5.83;100.00
34586;BME280;20816;50.950;11.108;2023-11-21T08:06:23;98119.06;;;5.82;100.00
34586;BME280;20816;50.950;11.108;2023-11-21T08:08:52;98118.13;;;5.93;100.00
34586;BME280;20816;50.950;11.108;2023-11-21T08:11:19;98122.44;;;5.97;100.00
34586;BME280;20816;50.950;11.108;2023-11-21T08:13:48;98130.19;;;6.03;100.00
34586;BME280;20816;50.950;11.108;2023-11-21T08:16:15;98117.88;;;6.14;100.00
34586;BME280;20816;50.950;11.108;2023-11-21T08:18:43;98126.44;;;6.25;100.00
34586;BME280;20816;50.950;11.108;2023-11-21T08:21:12;98112.50;;;6.26;100.00
34586;BME280;20816;50.950;11.108;2023-11-21T08:23:39;98126.38;;;6.30;100.00
34586;BME280;20816;50.950;11.108;2023-11-21T08:26:06;98122.88;;;6.32;100.00
34586;BME280;20816;50.950;11.108;2023-11-21T08:28:33;98127.97;;;6.41;100.00
34586;BME280;20816;50.950;11.108;2023-11-21T08:31:01;98126.19;;;6.46;100.00
34586;BME280;20816;50.950;11.108;2023-11-21T08:33:27;98131.31;;;6.53;100.00
34586;BME280;20816;50.950;11.108;2023-11-21T08:35:54;98129.50;;;6.58;100.00
34586;BME280;20816;50.950;11.108;2023-11-21T08:38:21;98132.91;;;6.63;100.00
34586;BME280;20816;50.950;11.108;2023-11-21T08:40:48;98132.72;;;6.75;100.00
34586;BME280;20816;50.950;11.108;2023-11-21T08:43:16;98136.28;;;6.71;100.00
34586;BME280;20816;50.950;11.108;2023-11-21T08:45:46;98134.50;;;6.76;100.00
34586;BME280;20816;50.950;11.108;2023-11-21T08:48:13;98137.00;;;6.82;100.00
34586;BME280;20816;50.950;11.108;2023-11-21T08:50:40;98145.59;;;6.89;100.00
34586;BME280;20816;50.950;11.108;2023-11-21T08:53:07;98150.59;;;7.04;100.00
34586;BME280;20816;50.950;11.108;2023-11-21T08:55:34;98143.53;;;7.11;100.00
34586;BME280;20816;50.950;11.108;2023-11-21T08:58:04;98147.72;;;7.21;100.00
34586;BME280;20816;50.950;11.108;2023-11-21T09:00:32;98150.22;;;7.28;100.00
34586;BME280;20816;50.950;11.108;2023-11-21T09:03:01;98147.66;;;7.27;100.00
34586;BME280;20816;50.950;11.108;2023-11-21T09:05:28;98151.09;;;7.29;100.00
34586;BME280;20816;50.950;11.108;2023-11-21T09:07:55;98158.13;;;7.24;100.00
34586;BME280;20816;50.950;11.108;2023-11-21T09:10:22;98160.84;;;7.19;100.00
34586;BME280;20816;50.950;11.108;2023-11-21T09:12:49;98166.91;;;7.20;100.00
34586;BME280;20816;50.950;11.108;2023-11-21T09:15:16;98171.16;;;7.27;100.00
34586;BME280;20816;50.950;11.108;2023-11-21T09:17:43;98173.81;;;7.24;100.00
34586;BME280;20816;50.950;11.108;2023-11-21T09:20:11;98175.59;;;7.22;100.00
34586;BME280;20816;50.950;11.108;2023-11-21T09:22:38;98180.88;;;7.19;100.00
34586;BME280;20816;50.950;11.108;2023-11-21T09:25:05;98178.16;;;7.26;100.00
34586;BME280;20816;50.950;11.108;2023-11-21T09:27:34;98186.00;;;7.26;100.00
34586;BME280;20816;50.950;11.108;2023-11-21T09:30:02;98186.78;;;7.30;100.00
34586;BME280;20816;50.950;11.108;2023-11-21T09:32:31;98187.69;;;7.29;100.00
34586;BME280;20816;50.950;11.108;2023-11-21T09:34:58;98192.91;;;7.29;100.00
34586;BME280;20816;50.950;11.108;2023-11-21T09:37:25;98192.97;;;7.26;100.00
34586;BME280;20816;50.950;11.108;2023-11-21T09:39:53;98194.72;;;7.24;100.00
34586;BME280;20816;50.950;11.108;2023-11-21T09:42:36;98196.47;;;7.25;100.00
34586;BME280;20816;50.950;11.108;2023-11-21T09:45:06;98200.75;;;7.29;100.00
34586;BME280;20816;50.950;11.108;2023-11-21T09:47:38;98197.22;;;7.33;100.00
34586;BME280;20816;50.950;11.108;2023-11-21T09:50:06;98196.22;;;7.40;100.00
34586;BME280;20816;50.950;11.108;2023-11-21T09:55:47;98199.63;;;7.45;100.00
34586;BME280;20816;50.950;11.108;2023-11-21T09:58:14;98192.75;;;7.38;100.00
34586;BME280;20816;50.950;11.108;2023-11-21T10:00:46;98200.66;;;7.35;100.00
34586;BME280;20816;50.950;11.108;2023-11-21T10:03:13;98196.28;;;7.37;100.00
34586;BME280;20816;50.950;11.108;2023-11-21T10:05:45;98202.28;;;7.44;100.00
34586;BME280;20816;50.950;11.108;2023-11-21T10:08:17;98200.50;;;7.46;100.00
34586;BME280;20816;50.950;11.108;2023-11-21T10:10:46;98201.38;;;7.45;100.00
34586;BME280;20816;50.950;11.108;2023-11-21T10:13:15;98206.66;;;7.43;100.00
34586;BME280;20816;50.950;11.108;2023-11-21T10:15:51;98204.91;;;7.42;100.00
34586;BME280;20816;50.950;11.108;2023-11-21T10:18:18;98207.50;;;7.44;100.00
34586;BME280;20816;50.950;11.108;2023-11-21T10:20:46;98205.06;;;7.33;100.00
34586;BME280;20816;50.950;11.108;2023-11-21T10:23:21;98200.66;;;7.35;100.00
34586;BME280;20816;50.950;11.108;2023-11-21T10:25:51;98202.56;;;7.24;100.00
34586;BME280;20816;50.950;11.108;2023-11-21T10:28:19;98213.88;;;7.26;100.00
34586;BME280;20816;50.950;11.108;2023-11-21T10:30:47;98205.19;;;7.24;100.00
34586;BME280;20816;50.950;11.108;2023-11-21T10:33:14;98210.44;;;7.22;100.00
34586;BME280;20816;50.950;11.108;2023-11-21T10:38:08;98205.22;;;7.21;100.00
34586;BME280;20816;50.950;11.108;2023-11-21T10:40:43;98206.94;;;7.23;100.00
34586;BME280;20816;50.950;11.108;2023-11-21T10:43:13;98217.41;;;7.22;100.00
34586;BME280;20816;50.950;11.108;2023-11-21T10:45:42;98216.56;;;7.21;100.00
34586;BME280;20816;50.950;11.108;2023-11-21T10:48:12;98218.28;;;7.22;100.00
34586;BME280;20816;50.950;11.108;2023-11-21T10:50:46;98211.25;;;7.24;100.00
34586;BME280;20816;50.950;11.108;2023-11-21T10:53:14;98213.00;;;7.24;100.00
34586;BME280;20816;50.950;11.108;2023-11-21T10:55:42;98213.88;;;7.26;100.00
34586;BME280;20816;50.950;11.108;2023-11-21T10:58:13;98220.84;;;7.27;100.00
34586;BME280;20816;50.950;11.108;2023-11-21T11:00:40;98227.81;;;7.26;100.00
34586;BME280;20816;50.950;11.108;2023-11-21T11:03:08;98221.72;;;7.24;100.00
34586;BME280;20816;50.950;11.108;2023-11-21T11:05:43;98235.66;;;7.26;100.00
34586;BME280;20816;50.950;11.108;2023-11-21T11:08:20;98228.69;;;7.24;100.00
34586;BME280;20816;50.950;11.108;2023-11-21T11:10:54;98224.41;;;7.20;100.00
34586;BME280;20816;50.950;11.108;2023-11-21T11:13:21;98228.69;;;7.24;100.00
34586;BME280;20816;50.950;11.108;2023-11-21T11:15:48;98237.34;;;7.29;100.00
34586;BME280;20816;50.950;11.108;2023-11-21T11:18:15;98231.25;;;7.28;100.00
34586;BME280;20816;50.950;11.108;2023-11-21T11:20:45;98234.59;;;7.38;100.00
34586;BME280;20816;50.950;11.108;2023-11-21T11:29:02;98237.19;;;7.41;100.00
34586;BME280;20816;50.950;11.108;2023-11-21T11:31:44;98240.63;;;7.43;100.00
34586;BME280;20816;50.950;11.108;2023-11-21T11:34:31;98244.94;;;7.46;100.00
34586;BME280;20816;50.950;11.108;2023-11-21T11:37:06;98242.22;;;7.53;100.00
34586;BME280;20816;50.950;11.108;2023-11-21T11:39:37;98243.09;;;7.52;100.00
34586;BME280;20816;50.950;11.108;2023-11-21T11:42:11;98238.66;;;7.59;100.00
34586;BME280;20816;50.950;11.108;2023-11-21T11:47:14;98241.22;;;7.61;100.00
34586;BME280;20816;50.950;11.108;2023-11-21T11:50:11;98251.69;;;7.61;100.00
34586;BME280;20816;50.950;11.108;2023-11-21T11:52:46;98261.41;;;7.52;100.00
34586;BME280;20816;50.950;11.108;2023-11-21T11:55:18;98255.34;;;7.50;100.00
34586;BME280;20816;50.950;11.108;2023-11-21T11:57:47;98256.94;;;7.61;100.00
34586;BME280;20816;50.950;11.108;2023-11-21T12:00:18;98251.69;;;7.61;100.00
34586;BME280;20816;50.950;11.108;2023-11-21T12:02:53;98256.22;;;7.48;100.00
34586;BME280;20816;50.950;11.108;2023-11-21T12:05:21;98257.22;;;7.42;100.00
34586;BME280;20816;50.950;11.108;2023-11-21T12:07:50;98253.66;;;7.46;100.00
34586;BME280;20816;50.950;11.108;2023-11-21T12:10:21;98258.84;;;7.49;100.00
34586;BME280;20816;50.950;11.108;2023-11-21T12:12:51;98265.94;;;7.41;100.00
34586;BME280;20816;50.950;11.108;2023-11-21T12:15:19;98260.56;;;7.50;100.00
34586;BME280;20816;50.950;11.108;2023-11-21T12:17:46;98264.03;;;7.52;100.00
34586;BME280;20816;50.950;11.108;2023-11-21T12:20:13;98260.72;;;7.41;100.00
34586;BME280;20816;50.950;11.108;2023-11-21T12:22:45;98265.81;;;7.50;100.00
34586;BME280;20816;50.950;11.108;2023-11-21T12:25:16;98271.97;;;7.45;100.00
34586;BME280;20816;50.950;11.108;2023-11-21T12:27:45;98271.19;;;7.41;100.00
34586;BME280;20816;50.950;11.108;2023-11-21T12:30:13;98277.34;;;7.36;100.00
34586;BME280;20816;50.950;11.108;2023-11-21T12:32:40;98284.41;;;7.29;100.00
34586;BME280;20816;50.950;11.108;2023-11-21T12:35:10;98283.47;;;7.31;100.00
34586;BME280;20816;50.950;11.108;2023-11-21T12:37:38;98288.78;;;7.27;100.00
34586;BME280;20816;50.950;11.108;2023-11-21T12:40:06;98286.97;;;7.34;100.00
34586;BME280;20816;50.950;11.108;2023-11-21T12:42:34;98289.50;;;7.38;100.00
34586;BME280;20816;50.950;11.108;2023-11-21T12:45:19;98290.34;;;7.40;100.00
34586;BME280;20816;50.950;11.108;2023-11-21T12:47:50;98299.94;;;7.41;100.00
34586;BME280;20816;50.950;11.108;2023-11-21T12:50:24;98294.63;;;7.46;100.00
34586;BME280;20816;50.950;11.108;2023-11-21T12:53:00;98299.03;;;7.42;100.00
34586;BME280;20816;50.950;11.108;2023-11-21T12:55:30;98306.81;;;7.47;100.00
34586;BME280;20816;50.950;11.108;2023-11-21T12:57:58;98299.94;;;7.40;100.00
34586;BME280;20816;50.950;11.108;2023-11-21T13:00:34;98298.34;;;7.29;100.00
34586;BME280;20816;50.950;11.108;2023-11-21T13:03:08;98297.31;;;7.41;100.00
34586;BME280;20816;50.950;11.108;2023-11-21T13:05:37;98295.75;;;7.28;100.00
34586;BME280;20816;50.950;11.108;2023-11-21T13:08:09;98300.16;;;7.26;100.00
34586;BME280;20816;50.950;11.108;2023-11-21T13:10:40;98311.56;;;7.16;100.00